sensor_id;sensor_type;location;lat;lon;timestamp;pressure;altitude;pressure_sealevel;temperature;humidity
18918;BME280;9591;52.742;13.650;2022-11-15T00:01:54;101105.81;;;2.27;100.00
18918;BME280;9591;52.742;13.650;2022-11-15T00:04:59;101097.09;;;2.25;100.00
18918;BME280;9591;52.742;13.650;2022-11-15T00:08:05;101100.53;;;2.18;100.00
18918;BME280;9591;52.742;13.650;2022-11-15T00:11:12;101091.81;;;2.20;100.00
18918;BME280;9591;52.742;13.650;2022-11-15T00:14:18;101086.66;;;2.28;100.00
18918;BME280;9591;52.742;13.650;2022-11-15T00:17:24;101089.31;;;2.34;100.00
18918;BME280;9591;52.742;13.650;2022-11-15T00:20:30;101085.81;;;2.30;100.00
18918;BME280;9591;52.742;13.650;2022-11-15T00:23:35;101080.53;;;2.23;100.00
18918;BME280;9591;52.742;13.650;2022-11-15T00:26:41;101077.88;;;2.20;100.00
18918;BME280;9591;52.742;13.650;2022-11-15T00:29:48;101066.72;;;2.41;100.00
18918;BME280;9591;52.742;13.650;2022-11-15T00:32:54;101057.09;;;2.37;100.00
18918;BME280;9591;52.742;13.650;2022-11-15T00:36:00;101060.56;;;2.36;100.00
18918;BME280;9591;52.742;13.650;2022-11-15T00:39:06;101064.03;;;2.33;100.00
18918;BME280;9591;52.742;13.650;2022-11-15T00:42:12;101062.34;;;2.38;100.00
18918;BME280;9591;52.742;13.650;2022-11-15T00:45:20;101051.91;;;2.43;100.00
18918;BME280;9591;52.742;13.650;2022-11-15T00:48:26;101043.19;;;2.44;100.00
18918;BME280;9591;52.742;13.650;2022-11-15T00:51:31;101034.50;;;2.46;100.00
18918;BME280;9591;52.742;13.650;2022-11-15T00:54:37;101024.84;;;2.36;100.00
18918;BME280;9591;52.742;13.650;2022-11-15T00:57:43;101043.22;;;2.48;100.00
18918;BME280;9591;52.742;13.650;2022-11-15T01:00:50;100998.63;;;2.22;100.00
18918;BME280;9591;52.742;13.650;2022-11-15T01:03:55;101041.44;;;2.41;100.00
18918;BME280;9591;52.742;13.650;2022-11-15T01:07:04;101034.44;;;2.37;100.00
18918;BME280;9591;52.742;13.650;2022-11-15T01:10:10;100958.34;;;1.91;100.00
18918;BME280;9591;52.742;13.650;2022-11-15T01:13:15;101024.84;;;2.35;100.00
18918;BME280;9591;52.742;13.650;2022-11-15T01:16:23;101021.38;;;2.37;100.00
18918;BME280;9591;52.742;13.650;2022-11-15T01:19:28;101024.81;;;2.33;100.00
18918;BME280;9591;52.742;13.650;2022-11-15T01:22:34;101012.66;;;2.38;100.00
18918;BME280;9591;52.742;13.650;2022-11-15T01:25:39;101010.97;;;2.45;100.00
18918;BME280;9591;52.742;13.650;2022-11-15T01:28:45;101007.44;;;2.37;100.00
18918;BME280;9591;52.742;13.650;2022-11-15T01:31:56;101004.81;;;2.38;100.00
18918;BME280;9591;52.742;13.650;2022-11-15T01:35:03;101005.69;;;2.40;100.00
18918;BME280;9591;52.742;13.650;2022-11-15T01:38:09;101010.91;;;2.37;100.00
18918;BME280;9591;52.742;13.650;2022-11-15T01:41:17;100994.31;;;2.29;100.00
18918;BME280;9591;52.742;13.650;2022-11-15T01:44:38;100994.31;;;2.27;100.00
18918;BME280;9591;52.742;13.650;2022-11-15T01:47:49;100991.69;;;2.27;100.00
18918;BME280;9591;52.742;13.650;2022-11-15T01:50:57;100984.72;;;2.31;100.00
18918;BME280;9591;52.742;13.650;2022-11-15T01:54:06;100985.59;;;2.32;100.00
18918;BME280;9591;52.742;13.650;2022-11-15T01:57:13;100980.38;;;2.28;100.00
18918;BME280;9591;52.742;13.650;2022-11-15T02:00:19;100977.75;;;2.27;100.00
18918;BME280;9591;52.742;13.650;2022-11-15T02:03:31;100976.88;;;2.28;100.00
18918;BME280;9591;52.742;13.650;2022-11-15T02:06:40;100973.41;;;2.34;100.00
18918;BME280;9591;52.742;13.650;2022-11-15T02:09:46;100976.00;;;2.26;100.00
18918;BME280;9591;52.742;13.650;2022-11-15T02:12:52;100971.63;;;2.23;100.00
18918;BME280;9591;52.742;13.650;2022-11-15T02:16:05;100970.78;;;2.30;100.00
18918;BME280;9591;52.742;13.650;2022-11-15T02:19:27;100971.72;;;2.39;100.00
18918;BME280;9591;52.742;13.650;2022-11-15T02:22:43;100967.31;;;2.33;100.00
18918;BME280;9591;52.742;13.650;2022-11-15T02:26:09;100961.34;;;2.57;100.00
18918;BME280;9591;52.742;13.650;2022-11-15T02:29:30;100912.41;;;2.32;100.00
18918;BME280;9591;52.742;13.650;2022-11-15T02:32:45;100959.59;;;2.57;100.00
18918;BME280;9591;52.742;13.650;2022-11-15T02:35:58;100951.75;;;2.67;100.00
18918;BME280;9591;52.742;13.650;2022-11-15T02:39:09;100956.09;;;2.64;100.00
18918;BME280;9591;52.742;13.650;2022-11-15T02:42:19;100949.13;;;2.62;100.00
18918;BME280;9591;52.742;13.650;2022-11-15T02:45:47;100952.59;;;2.52;100.00
18918;BME280;9591;52.742;13.650;2022-11-15T02:48:55;100956.94;;;2.45;100.00
18918;BME280;9591;52.742;13.650;2022-11-15T02:52:01;100958.66;;;2.43;100.00
18918;BME280;9591;52.742;13.650;2022-11-15T02:55:25;100949.09;;;2.47;100.00
18918;BME280;9591;52.742;13.650;2022-11-15T02:58:54;100947.34;;;2.47;100.00
18918;BME280;9591;52.742;13.650;2022-11-15T03:02:11;100946.47;;;2.48;100.00
18918;BME280;9591;52.742;13.650;2022-11-15T03:05:26;100942.16;;;2.58;100.00
18918;BME280;9591;52.742;13.650;2022-11-15T03:08:40;100943.06;;;2.74;100.00
18918;BME280;9591;52.742;13.650;2022-11-15T03:11:56;100937.84;;;2.80;100.00
18918;BME280;9591;52.742;13.650;2022-11-15T03:15:07;100936.97;;;2.79;100.00
18918;BME280;9591;52.742;13.650;2022-11-15T03:18:19;100943.06;;;2.75;100.00
18918;BME280;9591;52.742;13.650;2022-11-15T03:21:29;100940.47;;;2.84;100.00
18918;BME280;9591;52.742;13.650;2022-11-15T03:24:37;100931.75;;;2.87;100.00
18918;BME280;9591;52.742;13.650;2022-11-15T03:27:47;100937.84;;;2.83;100.00
18918;BME280;9591;52.742;13.650;2022-11-15T03:30:56;100931.75;;;2.84;100.00
18918;BME280;9591;52.742;13.650;2022-11-15T03:34:05;100923.06;;;2.94;100.00
18918;BME280;9591;52.742;13.650;2022-11-15T03:37:15;100916.06;;;2.90;100.00
18918;BME280;9591;52.742;13.650;2022-11-15T03:40:34;100922.16;;;2.89;100.00
18918;BME280;9591;52.742;13.650;2022-11-15T03:43:47;100917.81;;;2.89;100.00
18918;BME280;9591;52.742;13.650;2022-11-15T03:47:01;100919.53;;;2.80;100.00
18918;BME280;9591;52.742;13.650;2022-11-15T03:50:11;100933.47;;;2.77;100.00
18918;BME280;9591;52.742;13.650;2022-11-15T03:53:19;100916.88;;;2.66;100.00
18918;BME280;9591;52.742;13.650;2022-11-15T03:56:24;100924.72;;;2.63;100.00
18918;BME280;9591;52.742;13.650;2022-11-15T03:59:29;100922.97;;;2.56;100.00
18918;BME280;9591;52.742;13.650;2022-11-15T04:02:34;100910.75;;;2.61;100.00
18918;BME280;9591;52.742;13.650;2022-11-15T04:05:40;100916.94;;;2.84;100.00
18918;BME280;9591;52.742;13.650;2022-11-15T04:08:46;100909.97;;;2.88;100.00
18918;BME280;9591;52.742;13.650;2022-11-15T04:11:53;100916.06;;;2.82;100.00
18918;BME280;9591;52.742;13.650;2022-11-15T04:15:03;100912.56;;;2.85;100.00
18918;BME280;9591;52.742;13.650;2022-11-15T04:18:12;100918.69;;;2.90;100.00
18918;BME280;9591;52.742;13.650;2022-11-15T04:21:18;100911.69;;;2.80;100.00
18918;BME280;9591;52.742;13.650;2022-11-15T04:24:42;100902.06;;;2.71;100.00
18918;BME280;9591;52.742;13.650;2022-11-15T04:27:48;100909.06;;;2.77;100.00
18918;BME280;9591;52.742;13.650;2022-11-15T04:30:54;100900.34;;;2.72;100.00
18918;BME280;9591;52.742;13.650;2022-11-15T04:33:59;100901.22;;;2.84;100.00
18918;BME280;9591;52.742;13.650;2022-11-15T04:37:05;100897.75;;;2.84;100.00
18918;BME280;9591;52.742;13.650;2022-11-15T04:40:21;100911.63;;;2.64;100.00
18918;BME280;9591;52.742;13.650;2022-11-15T04:43:27;100906.41;;;2.68;100.00
18918;BME280;9591;52.742;13.650;2022-11-15T04:46:34;100906.41;;;2.66;100.00
18918;BME280;9591;52.742;13.650;2022-11-15T04:49:41;100902.06;;;2.71;100.00
18918;BME280;9591;52.742;13.650;2022-11-15T04:52:51;100902.09;;;2.85;100.00
18918;BME280;9591;52.742;13.650;2022-11-15T04:55:58;100887.31;;;2.99;100.00
18918;BME280;9591;52.742;13.650;2022-11-15T04:59:04;100894.28;;;3.08;100.00
18918;BME280;9591;52.742;13.650;2022-11-15T05:02:10;100894.31;;;3.14;100.00
18918;BME280;9591;52.742;13.650;2022-11-15T05:05:16;100896.91;;;3.11;100.00
18918;BME280;9591;52.742;13.650;2022-11-15T05:08:23;100899.53;;;3.12;100.00
18918;BME280;9591;52.742;13.650;2022-11-15T05:11:31;100882.94;;;3.06;100.00
18918;BME280;9591;52.742;13.650;2022-11-15T05:14:36;100890.81;;;3.28;100.00
18918;BME280;9591;52.742;13.650;2022-11-15T05:17:44;100886.44;;;3.24;100.00
18918;BME280;9591;52.742;13.650;2022-11-15T05:20:53;100893.44;;;3.28;100.00
18918;BME280;9591;52.742;13.650;2022-11-15T05:23:59;100888.19;;;3.18;100.00
18918;BME280;9591;52.742;13.650;2022-11-15T05:27:06;100889.06;;;3.02;100.00
18918;BME280;9591;52.742;13.650;2022-11-15T05:30:12;100894.28;;;2.94;100.00
18918;BME280;9591;52.742;13.650;2022-11-15T05:33:18;100895.97;;;2.77;100.00
18918;BME280;9591;52.742;13.650;2022-11-15T05:36:29;100899.44;;;2.56;100.00
18918;BME280;9591;52.742;13.650;2022-11-15T05:39:36;100889.84;;;2.49;100.00
18918;BME280;9591;52.742;13.650;2022-11-15T05:42:44;100888.09;;;2.48;100.00
18918;BME280;9591;52.742;13.650;2022-11-15T05:45:50;100895.88;;;2.34;100.00
18918;BME280;9591;52.742;13.650;2022-11-15T05:48:56;100900.22;;;2.34;100.00
18918;BME280;9591;52.742;13.650;2022-11-15T05:52:05;100900.25;;;2.41;100.00
18918;BME280;9591;52.742;13.650;2022-11-15T05:55:12;100901.97;;;2.33;100.00
18918;BME280;9591;52.742;13.650;2022-11-15T05:58:20;100901.06;;;2.25;100.00
18918;BME280;9591;52.742;13.650;2022-11-15T06:01:26;100902.78;;;2.21;100.00
18918;BME280;9591;52.742;13.650;2022-11-15T06:04:32;100897.56;;;2.20;100.00
18918;BME280;9591;52.742;13.650;2022-11-15T06:07:37;100908.03;;;2.23;100.00
18918;BME280;9591;52.742;13.650;2022-11-15T06:10:43;100905.44;;;2.29;100.00
18918;BME280;9591;52.742;13.650;2022-11-15T06:13:50;100895.78;;;2.16;100.00
18918;BME280;9591;52.742;13.650;2022-11-15T06:16:56;100901.88;;;2.12;100.00
18918;BME280;9591;52.742;13.650;2022-11-15T06:20:02;100900.13;;;2.09;100.00
18918;BME280;9591;52.742;13.650;2022-11-15T06:23:08;100909.72;;;2.15;100.00
18918;BME280;9591;52.742;13.650;2022-11-15T06:26:14;100919.38;;;2.25;100.00
18918;BME280;9591;52.742;13.650;2022-11-15T06:29:27;100915.91;;;2.35;100.00
18918;BME280;9591;52.742;13.650;2022-11-15T06:32:32;100909.81;;;2.32;100.00
18918;BME280;9591;52.742;13.650;2022-11-15T06:35:40;100914.13;;;2.26;100.00
18918;BME280;9591;52.742;13.650;2022-11-15T06:38:47;100908.00;;;2.20;100.00
18918;BME280;9591;52.742;13.650;2022-11-15T06:41:54;100913.25;;;2.26;100.00
18918;BME280;9591;52.742;13.650;2022-11-15T06:45:02;100915.03;;;2.32;100.00
18918;BME280;9591;52.742;13.650;2022-11-15T06:48:08;100928.13;;;2.39;100.00
18918;BME280;9591;52.742;13.650;2022-11-15T06:51:13;100922.03;;;2.37;100.00
18918;BME280;9591;52.742;13.650;2022-11-15T06:54:19;100918.53;;;2.35;100.00
18918;BME280;9591;52.742;13.650;2022-11-15T06:57:26;100920.34;;;2.48;100.00
18918;BME280;9591;52.742;13.650;2022-11-15T07:00:33;100927.31;;;2.46;100.00
18918;BME280;9591;52.742;13.650;2022-11-15T07:03:40;100928.16;;;2.45;100.00
18918;BME280;9591;52.742;13.650;2022-11-15T07:06:46;100930.78;;;2.48;100.00
18918;BME280;9591;52.742;13.650;2022-11-15T07:09:52;100935.16;;;2.48;100.00
18918;BME280;9591;52.742;13.650;2022-11-15T07:12:57;100928.19;;;2.51;100.00
18918;BME280;9591;52.742;13.650;2022-11-15T07:16:06;100934.31;;;2.66;100.00
18918;BME280;9591;52.742;13.650;2022-11-15T07:19:12;100936.06;;;2.70;100.00
18918;BME280;9591;52.742;13.650;2022-11-15T07:22:18;100938.72;;;2.77;100.00
18918;BME280;9591;52.742;13.650;2022-11-15T07:25:24;100933.50;;;2.83;100.00
18918;BME280;9591;52.742;13.650;2022-11-15T07:28:30;100939.63;;;2.90;100.00
18918;BME280;9591;52.742;13.650;2022-11-15T07:31:37;100944.88;;;2.99;100.00
18918;BME280;9591;52.742;13.650;2022-11-15T07:34:43;100942.28;;;3.07;100.00
18918;BME280;9591;52.742;13.650;2022-11-15T07:37:55;100944.91;;;3.10;100.00
18918;BME280;9591;52.742;13.650;2022-11-15T07:41:02;100946.66;;;3.17;100.00
18918;BME280;9591;52.742;13.650;2022-11-15T07:44:08;100948.41;;;3.22;100.00
18918;BME280;9591;52.742;13.650;2022-11-15T07:47:15;100940.56;;;3.27;100.00
18918;BME280;9591;52.742;13.650;2022-11-15T07:50:21;100942.31;;;3.34;100.00
18918;BME280;9591;52.742;13.650;2022-11-15T07:53:26;100947.53;;;3.40;100.00
18918;BME280;9591;52.742;13.650;2022-11-15T07:56:32;100937.03;;;3.51;100.00
18918;BME280;9591;52.742;13.650;2022-11-15T07:59:38;100940.53;;;3.65;100.00
18918;BME280;9591;52.742;13.650;2022-11-15T08:02:45;100937.91;;;3.85;100.00
18918;BME280;9591;52.742;13.650;2022-11-15T08:05:51;100942.22;;;4.03;100.00
18918;BME280;9591;52.742;13.650;2022-11-15T08:08:57;100937.84;;;4.17;100.00
18918;BME280;9591;52.742;13.650;2022-11-15T08:12:02;100931.69;;;4.25;100.00
18918;BME280;9591;52.742;13.650;2022-11-15T08:15:08;100926.44;;;4.30;100.00
18918;BME280;9591;52.742;13.650;2022-11-15T08:18:16;100915.00;;;4.34;100.00
18918;BME280;9591;52.742;13.650;2022-11-15T08:21:22;100924.56;;;4.53;100.00
18918;BME280;9591;52.742;13.650;2022-11-15T08:24:27;100920.97;;;4.70;100.00
18918;BME280;9591;52.742;13.650;2022-11-15T08:27:33;100915.69;;;4.79;100.00
18918;BME280;9591;52.742;13.650;2022-11-15T08:30:41;100913.00;;;4.91;100.00
18918;BME280;9591;52.742;13.650;2022-11-15T08:33:51;100911.97;;;5.12;100.00
18918;BME280;9591;52.742;13.650;2022-11-15T08:36:57;100913.75;;;5.10;100.00
18918;BME280;9591;52.742;13.650;2022-11-15T08:40:03;100904.06;;;5.19;100.00
18918;BME280;9591;52.742;13.650;2022-11-15T08:43:09;100907.47;;;5.26;100.00
18918;BME280;9591;52.742;13.650;2022-11-15T08:46:15;100910.88;;;5.37;100.00
18918;BME280;9591;52.742;13.650;2022-11-15T08:49:21;100902.97;;;5.42;100.00
18918;BME280;9591;52.742;13.650;2022-11-15T08:52:27;100907.28;;;5.49;100.00
18918;BME280;9591;52.742;13.650;2022-11-15T08:55:35;100902.84;;;5.55;100.00
18918;BME280;9591;52.742;13.650;2022-11-15T08:58:41;100900.06;;;5.72;100.00
18918;BME280;9591;52.742;13.650;2022-11-15T09:01:47;100900.84;;;5.83;100.00
18918;BME280;9591;52.742;13.650;2022-11-15T09:04:54;100900.78;;;5.91;100.00
18918;BME280;9591;52.742;13.650;2022-11-15T09:08:00;100891.06;;;6.01;100.00
18918;BME280;9591;52.742;13.650;2022-11-15T09:11:26;100889.66;;;6.41;100.00
18918;BME280;9591;52.742;13.650;2022-11-15T09:14:32;100899.91;;;6.64;100.00
18918;BME280;9591;52.742;13.650;2022-11-15T09:17:37;100901.44;;;6.79;100.00
18918;BME280;9591;52.742;13.650;2022-11-15T09:20:44;100898.75;;;6.83;100.00
18918;BME280;9591;52.742;13.650;2022-11-15T09:23:50;100902.97;;;6.94;100.00
18918;BME280;9591;52.742;13.650;2022-11-15T09:26:57;100908.09;;;7.03;100.00
18918;BME280;9591;52.742;13.650;2022-11-15T09:30:04;100917.47;;;7.22;100.00
18918;BME280;9591;52.742;13.650;2022-11-15T09:33:11;100904.91;;;7.38;100.00
18918;BME280;9591;52.742;13.650;2022-11-15T09:36:18;100910.72;;;7.58;100.00
18918;BME280;9591;52.742;13.650;2022-11-15T09:39:23;100905.41;;;7.61;100.00
18918;BME280;9591;52.742;13.650;2022-11-15T09:42:40;100906.97;;;7.73;100.00
18918;BME280;9591;52.742;13.650;2022-11-15T09:45:58;100914.50;;;7.91;100.00
18918;BME280;9591;52.742;13.650;2022-11-15T09:49:09;100910.09;;;7.93;100.00
18918;BME280;9591;52.742;13.650;2022-11-15T09:52:12;100907.25;;;8.04;100.00
18918;BME280;9591;52.742;13.650;2022-11-15T09:54:59;100907.88;;;8.16;100.00
18918;BME280;9591;52.742;13.650;2022-11-15T09:57:50;100898.84;;;8.28;100.00
18918;BME280;9591;52.742;13.650;2022-11-15T10:00:40;100891.72;;;8.35;100.00
18918;BME280;9591;52.742;13.650;2022-11-15T10:03:34;100894.38;;;8.32;100.00
18918;BME280;9591;52.742;13.650;2022-11-15T10:06:23;100890.84;;;8.34;100.00
18918;BME280;9591;52.742;13.650;2022-11-15T10:09:16;100888.84;;;8.45;100.00
18918;BME280;9591;52.742;13.650;2022-11-15T10:12:08;100882.66;;;8.48;100.00
18918;BME280;9591;52.742;13.650;2022-11-15T10:15:00;100880.88;;;8.48;100.00
18918;BME280;9591;52.742;13.650;2022-11-15T10:21:12;100872.13;;;8.85;100.00
18918;BME280;9591;52.742;13.650;2022-11-15T10:24:01;100873.56;;;8.98;100.00
18918;BME280;9591;52.742;13.650;2022-11-15T10:26:54;100870.34;;;9.23;100.00
18918;BME280;9591;52.742;13.650;2022-11-15T10:29:43;100854.63;;;9.52;100.00
18918;BME280;9591;52.742;13.650;2022-11-15T10:32:32;100861.81;;;9.79;100.00
18918;BME280;9591;52.742;13.650;2022-11-15T10:35:25;100857.19;;;10.20;100.00
18918;BME280;9591;52.742;13.650;2022-11-15T10:38:12;100844.22;;;10.40;100.00
18918;BME280;9591;52.742;13.650;2022-11-15T10:41:07;100852.97;;;10.72;100.00
18918;BME280;9591;52.742;13.650;2022-11-15T10:47:25;100840.34;;;10.52;100.00
18918;BME280;9591;52.742;13.650;2022-11-15T10:50:27;100836.56;;;10.31;100.00
18918;BME280;9591;52.742;13.650;2022-11-15T10:53:18;100829.28;;;10.39;100.00
18918;BME280;9591;52.742;13.650;2022-11-15T10:56:11;100829.00;;;10.17;100.00
18918;BME280;9591;52.742;13.650;2022-11-15T10:58:58;100833.50;;;10.14;100.00
18918;BME280;9591;52.742;13.650;2022-11-15T11:01:47;100817.06;;;10.03;100.00
18918;BME280;9591;52.742;13.650;2022-11-15T11:04:49;100806.97;;;9.86;100.00
18918;BME280;9591;52.742;13.650;2022-11-15T11:07:36;100804.19;;;9.91;100.00
18918;BME280;9591;52.742;13.650;2022-11-15T11:10:23;100803.00;;;10.01;100.00
18918;BME280;9591;52.742;13.650;2022-11-15T11:13:31;100797.69;;;10.02;100.00
18918;BME280;9591;52.742;13.650;2022-11-15T11:16:32;100804.09;;;9.94;100.00
18918;BME280;9591;52.742;13.650;2022-11-15T11:19:48;100801.25;;;10.01;100.00
18918;BME280;9591;52.742;13.650;2022-11-15T11:22:42;100797.03;;;9.94;100.00
18918;BME280;9591;52.742;13.650;2022-11-15T11:25:38;100795.44;;;9.89;100.00
18918;BME280;9591;52.742;13.650;2022-11-15T11:28:38;100787.44;;;9.90;100.00
18918;BME280;9591;52.742;13.650;2022-11-15T11:31:32;100786.13;;;10.05;100.00
18918;BME280;9591;52.742;13.650;2022-11-15T11:34:34;100791.84;;;10.22;100.00
18918;BME280;9591;52.742;13.650;2022-11-15T11:37:31;100786.78;;;10.42;100.00
18918;BME280;9591;52.742;13.650;2022-11-15T11:40:28;100783.72;;;10.56;100.00
18918;BME280;9591;52.742;13.650;2022-11-15T11:43:22;100785.53;;;10.54;100.00
18918;BME280;9591;52.742;13.650;2022-11-15T11:46:24;100784.78;;;10.50;100.00
18918;BME280;9591;52.742;13.650;2022-11-15T11:49:18;100793.38;;;10.57;100.00
18918;BME280;9591;52.742;13.650;2022-11-15T11:52:13;100777.25;;;10.65;100.00
18918;BME280;9591;52.742;13.650;2022-11-15T11:55:13;100778.03;;;10.68;100.00
18918;BME280;9591;52.742;13.650;2022-11-15T11:58:06;100772.59;;;10.73;100.00
18918;BME280;9591;52.742;13.650;2022-11-15T12:01:02;100772.44;;;10.77;100.00
18918;BME280;9591;52.742;13.650;2022-11-15T12:03:59;100777.97;;;10.70;100.00
18918;BME280;9591;52.742;13.650;2022-11-15T12:06:50;100767.03;;;10.80;100.00
18918;BME280;9591;52.742;13.650;2022-11-15T12:09:43;100770.97;;;10.95;100.00
18918;BME280;9591;52.742;13.650;2022-11-15T12:12:38;100768.56;;;10.88;100.00
18918;BME280;9591;52.742;13.650;2022-11-15T12:15:31;100758.84;;;10.88;100.00
18918;BME280;9591;52.742;13.650;2022-11-15T12:18:19;100759.81;;;10.86;100.00
18918;BME280;9591;52.742;13.650;2022-11-15T12:21:16;100753.84;;;10.79;100.00
18918;BME280;9591;52.742;13.650;2022-11-15T12:24:17;100754.59;;;10.82;100.00
18918;BME280;9591;52.742;13.650;2022-11-15T12:27:14;100754.03;;;10.73;100.00
18918;BME280;9591;52.742;13.650;2022-11-15T12:30:13;100748.66;;;10.76;100.00
18918;BME280;9591;52.742;13.650;2022-11-15T12:33:01;100745.19;;;10.74;100.00
18918;BME280;9591;52.742;13.650;2022-11-15T12:35:57;100744.78;;;10.86;100.00
18918;BME280;9591;52.742;13.650;2022-11-15T12:38:56;100742.53;;;10.74;100.00
18918;BME280;9591;52.742;13.650;2022-11-15T12:45:29;100744.38;;;10.72;100.00
18918;BME280;9591;52.742;13.650;2022-11-15T12:52:06;100733.97;;;10.66;100.00
18918;BME280;9591;52.742;13.650;2022-11-15T12:54:58;100735.56;;;10.71;100.00
18918;BME280;9591;52.742;13.650;2022-11-15T12:57:45;100734.84;;;10.66;100.00
18918;BME280;9591;52.742;13.650;2022-11-15T13:00:42;100731.31;;;10.66;100.00
18918;BME280;9591;52.742;13.650;2022-11-15T13:03:32;100727.81;;;10.65;100.00
18918;BME280;9591;52.742;13.650;2022-11-15T13:06:39;100733.25;;;10.61;100.00
18918;BME280;9591;52.742;13.650;2022-11-15T13:09:54;100711.41;;;10.54;100.00
18918;BME280;9591;52.742;13.650;2022-11-15T13:12:53;100711.19;;;10.60;100.00
18918;BME280;9591;52.742;13.650;2022-11-15T13:15:55;100704.84;;;10.66;100.00
18918;BME280;9591;52.742;13.650;2022-11-15T13:18:42;100705.44;;;10.47;100.00
18918;BME280;9591;52.742;13.650;2022-11-15T13:21:28;100704.66;;;10.44;100.00
18918;BME280;9591;52.742;13.650;2022-11-15T13:24:33;100702.06;;;10.42;100.00
18918;BME280;9591;52.742;13.650;2022-11-15T13:27:20;100701.41;;;10.36;100.00
18918;BME280;9591;52.742;13.650;2022-11-15T13:30:13;100700.31;;;10.41;100.00
18918;BME280;9591;52.742;13.650;2022-11-15T13:33:09;100706.03;;;10.29;100.00
18918;BME280;9591;52.742;13.650;2022-11-15T13:35:59;100710.56;;;10.26;100.00
18918;BME280;9591;52.742;13.650;2022-11-15T13:38:55;100711.38;;;10.28;100.00
18918;BME280;9591;52.742;13.650;2022-11-15T13:41:47;100708.13;;;10.18;100.00
18918;BME280;9591;52.742;13.650;2022-11-15T13:44:34;100717.22;;;10.39;100.00
18918;BME280;9591;52.742;13.650;2022-11-15T13:47:21;100718.22;;;10.35;100.00
18918;BME280;9591;52.742;13.650;2022-11-15T13:50:11;100729.22;;;10.21;100.00
18918;BME280;9591;52.742;13.650;2022-11-15T13:53:01;100729.72;;;10.34;100.00
18918;BME280;9591;52.742;13.650;2022-11-15T13:55:50;100726.69;;;10.16;100.00
18918;BME280;9591;52.742;13.650;2022-11-15T13:58:38;100730.91;;;10.24;100.00
18918;BME280;9591;52.742;13.650;2022-11-15T14:01:28;100714.13;;;10.25;100.00
18918;BME280;9591;52.742;13.650;2022-11-15T14:04:20;100715.25;;;10.16;100.00
18918;BME280;9591;52.742;13.650;2022-11-15T14:07:16;100715.16;;;9.90;100.00
18918;BME280;9591;52.742;13.650;2022-11-15T14:10:24;100718.09;;;9.79;100.00
18918;BME280;9591;52.742;13.650;2022-11-15T14:13:27;100715.03;;;9.63;100.00
18918;BME280;9591;52.742;13.650;2022-11-15T14:16:16;100688.16;;;9.16;100.00
18918;BME280;9591;52.742;13.650;2022-11-15T14:19:05;100721.41;;;9.25;100.00
18918;BME280;9591;52.742;13.650;2022-11-15T14:22:09;100723.09;;;9.28;100.00
18918;BME280;9591;52.742;13.650;2022-11-15T14:25:16;100728.63;;;9.18;100.00
18918;BME280;9591;52.742;13.650;2022-11-15T14:28:15;100716.88;;;8.96;100.00
18918;BME280;9591;52.742;13.650;2022-11-15T14:31:09;100714.66;;;8.79;100.00
18918;BME280;9591;52.742;13.650;2022-11-15T14:33:57;100708.56;;;8.77;100.00
18918;BME280;9591;52.742;13.650;2022-11-15T14:36:43;100713.47;;;8.59;100.00
18918;BME280;9591;52.742;13.650;2022-11-15T14:39:30;100710.53;;;8.32;100.00
18918;BME280;9591;52.742;13.650;2022-11-15T14:42:19;100708.38;;;8.11;100.00
18918;BME280;9591;52.742;13.650;2022-11-15T14:45:11;100708.56;;;8.02;100.00
18918;BME280;9591;52.742;13.650;2022-11-15T14:47:58;100702.69;;;7.89;100.00
18918;BME280;9591;52.742;13.650;2022-11-15T14:50:45;100708.59;;;7.62;100.00
18918;BME280;9591;52.742;13.650;2022-11-15T14:53:32;100703.75;;;7.40;100.00
18918;BME280;9591;52.742;13.650;2022-11-15T14:56:19;100707.59;;;7.22;100.00
18918;BME280;9591;52.742;13.650;2022-11-15T14:59:07;100702.25;;;7.26;100.00
18918;BME280;9591;52.742;13.650;2022-11-15T15:01:53;100698.22;;;7.06;100.00
18918;BME280;9591;52.742;13.650;2022-11-15T15:04:40;100686.38;;;6.84;100.00
18918;BME280;9591;52.742;13.650;2022-11-15T15:07:27;100694.88;;;6.98;100.00
18918;BME280;9591;52.742;13.650;2022-11-15T15:10:15;100696.50;;;7.05;100.00
18918;BME280;9591;52.742;13.650;2022-11-15T15:13:23;100695.97;;;6.88;100.00
18918;BME280;9591;52.742;13.650;2022-11-15T15:16:12;100702.47;;;6.66;100.00
18918;BME280;9591;52.742;13.650;2022-11-15T15:18:58;100702.59;;;6.58;100.00
18918;BME280;9591;52.742;13.650;2022-11-15T15:21:45;100686.19;;;6.42;100.00
18918;BME280;9591;52.742;13.650;2022-11-15T15:24:32;100697.72;;;6.34;100.00
18918;BME280;9591;52.742;13.650;2022-11-15T15:27:19;100692.63;;;6.23;100.00
18918;BME280;9591;52.742;13.650;2022-11-15T15:30:07;100683.13;;;6.14;100.00
18918;BME280;9591;52.742;13.650;2022-11-15T15:32:57;100688.44;;;6.10;100.00
18918;BME280;9591;52.742;13.650;2022-11-15T15:35:45;100690.31;;;6.03;100.00
18918;BME280;9591;52.742;13.650;2022-11-15T15:38:32;100682.34;;;6.08;100.00
18918;BME280;9591;52.742;13.650;2022-11-15T15:41:19;100674.72;;;5.88;100.00
18918;BME280;9591;52.742;13.650;2022-11-15T15:44:06;100674.03;;;5.75;100.00
18918;BME280;9591;52.742;13.650;2022-11-15T15:46:53;100678.47;;;5.70;100.00
18918;BME280;9591;52.742;13.650;2022-11-15T15:49:41;100682.13;;;5.58;100.00
18918;BME280;9591;52.742;13.650;2022-11-15T15:52:29;100676.97;;;5.51;100.00
18918;BME280;9591;52.742;13.650;2022-11-15T15:55:16;100678.78;;;5.46;100.00
18918;BME280;9591;52.742;13.650;2022-11-15T15:58:04;100673.44;;;5.52;100.00
18918;BME280;9591;52.742;13.650;2022-11-15T16:00:53;100641.41;;;5.22;100.00
18918;BME280;9591;52.742;13.650;2022-11-15T16:03:40;100681.41;;;5.46;100.00